sensor_id;sensor_type;location;lat;lon;timestamp;temperature;humidity
42019;DHT22;27703;51.980;5.848;2024-02-14T00:00:53;8.20;99.90
42019;DHT22;27703;51.980;5.848;2024-02-14T00:03:18;8.20;99.90
42019;DHT22;27703;51.980;5.848;2024-02-14T00:05:45;8.20;99.90
42019;DHT22;27703;51.980;5.848;2024-02-14T00:08:11;8.20;99.90
42019;DHT22;27703;51.980;5.848;2024-02-14T00:10:39;8.20;99.90
42019;DHT22;27703;51.980;5.848;2024-02-14T00:13:04;8.20;99.90
42019;DHT22;27703;51.980;5.848;2024-02-14T00:15:30;8.20;99.90
42019;DHT22;27703;51.980;5.848;2024-02-14T00:17:56;8.20;99.90
42019;DHT22;27703;51.980;5.848;2024-02-14T00:20:21;8.20;99.90
42019;DHT22;27703;51.980;5.848;2024-02-14T00:22:47;8.20;99.90
42019;DHT22;27703;51.980;5.848;2024-02-14T00:25:13;8.20;99.90
42019;DHT22;27703;51.980;5.848;2024-02-14T00:27:39;8.30;99.90
42019;DHT22;27703;51.980;5.848;2024-02-14T00:30:05;8.20;99.90
42019;DHT22;27703;51.980;5.848;2024-02-14T00:32:31;8.20;99.90
42019;DHT22;27703;51.980;5.848;2024-02-14T00:34:57;8.30;99.90
42019;DHT22;27703;51.980;5.848;2024-02-14T00:37:23;8.20;99.90
42019;DHT22;27703;51.980;5.848;2024-02-14T00:39:48;8.30;99.90
42019;DHT22;27703;51.980;5.848;2024-02-14T00:42:15;8.30;99.90
42019;DHT22;27703;51.980;5.848;2024-02-14T00:44:41;8.30;99.90
42019;DHT22;27703;51.980;5.848;2024-02-14T00:47:07;8.30;99.90
42019;DHT22;27703;51.980;5.848;2024-02-14T00:49:36;8.30;99.90
42019;DHT22;27703;51.980;5.848;2024-02-14T00:52:04;8.30;99.90
42019;DHT22;27703;51.980;5.848;2024-02-14T00:54:30;8.30;99.90
42019;DHT22;27703;51.980;5.848;2024-02-14T00:56:55;8.30;99.90
42019;DHT22;27703;51.980;5.848;2024-02-14T00:59:21;8.30;99.90
42019;DHT22;27703;51.980;5.848;2024-02-14T01:01:46;8.40;99.90
42019;DHT22;27703;51.980;5.848;2024-02-14T01:04:12;8.40;99.90
42019;DHT22;27703;51.980;5.848;2024-02-14T01:06:37;8.40;99.90
42019;DHT22;27703;51.980;5.848;2024-02-14T01:09:03;8.40;99.90
42019;DHT22;27703;51.980;5.848;2024-02-14T01:11:29;8.40;99.90
42019;DHT22;27703;51.980;5.848;2024-02-14T01:13:54;8.40;99.90
42019;DHT22;27703;51.980;5.848;2024-02-14T01:16:20;8.50;99.90
42019;DHT22;27703;51.980;5.848;2024-02-14T01:18:45;8.50;99.90
42019;DHT22;27703;51.980;5.848;2024-02-14T01:21:11;8.50;99.90
42019;DHT22;27703;51.980;5.848;2024-02-14T01:23:36;8.50;99.90
42019;DHT22;27703;51.980;5.848;2024-02-14T01:26:02;8.50;99.90
42019;DHT22;27703;51.980;5.848;2024-02-14T01:28:27;8.60;99.90
42019;DHT22;27703;51.980;5.848;2024-02-14T01:30:53;8.60;99.90
42019;DHT22;27703;51.980;5.848;2024-02-14T01:33:19;8.60;99.90
42019;DHT22;27703;51.980;5.848;2024-02-14T01:35:44;8.70;99.90
42019;DHT22;27703;51.980;5.848;2024-02-14T01:38:10;8.70;99.90
42019;DHT22;27703;51.980;5.848;2024-02-14T01:40:38;8.70;99.90
42019;DHT22;27703;51.980;5.848;2024-02-14T01:43:03;8.70;99.90
42019;DHT22;27703;51.980;5.848;2024-02-14T01:45:29;8.70;99.90
42019;DHT22;27703;51.980;5.848;2024-02-14T01:47:55;8.70;99.90
42019;DHT22;27703;51.980;5.848;2024-02-14T01:50:22;8.80;99.90
42019;DHT22;27703;51.980;5.848;2024-02-14T01:52:54;8.80;99.90
42019;DHT22;27703;51.980;5.848;2024-02-14T01:55:21;8.80;99.90
42019;DHT22;27703;51.980;5.848;2024-02-14T01:57:49;8.80;99.90
42019;DHT22;27703;51.980;5.848;2024-02-14T02:00:15;8.90;99.90
42019;DHT22;27703;51.980;5.848;2024-02-14T02:02:43;8.90;99.90
42019;DHT22;27703;51.980;5.848;2024-02-14T02:05:09;8.90;99.90
42019;DHT22;27703;51.980;5.848;2024-02-14T02:07:35;9.00;99.90
42019;DHT22;27703;51.980;5.848;2024-02-14T02:12:39;9.00;99.90
42019;DHT22;27703;51.980;5.848;2024-02-14T02:15:08;9.00;99.90
42019;DHT22;27703;51.980;5.848;2024-02-14T02:17:38;9.10;99.90
42019;DHT22;27703;51.980;5.848;2024-02-14T02:20:05;9.00;99.90
42019;DHT22;27703;51.980;5.848;2024-02-14T02:22:32;9.10;99.90
42019;DHT22;27703;51.980;5.848;2024-02-14T02:25:01;9.10;99.90
42019;DHT22;27703;51.980;5.848;2024-02-14T02:27:26;9.10;99.90
42019;DHT22;27703;51.980;5.848;2024-02-14T02:29:52;9.00;99.90
42019;DHT22;27703;51.980;5.848;2024-02-14T02:32:17;9.00;99.90
42019;DHT22;27703;51.980;5.848;2024-02-14T02:34:43;9.00;99.90
42019;DHT22;27703;51.980;5.848;2024-02-14T02:37:11;8.90;99.90
42019;DHT22;27703;51.980;5.848;2024-02-14T02:39:37;9.00;99.90
42019;DHT22;27703;51.980;5.848;2024-02-14T02:42:03;9.00;99.90
42019;DHT22;27703;51.980;5.848;2024-02-14T02:44:31;9.00;99.90
42019;DHT22;27703;51.980;5.848;2024-02-14T02:46:56;9.00;99.90
42019;DHT22;27703;51.980;5.848;2024-02-14T02:49:22;9.00;99.90
42019;DHT22;27703;51.980;5.848;2024-02-14T02:51:47;9.00;99.90
42019;DHT22;27703;51.980;5.848;2024-02-14T02:54:14;9.00;99.90
42019;DHT22;27703;51.980;5.848;2024-02-14T02:56:39;9.00;99.90
42019;DHT22;27703;51.980;5.848;2024-02-14T02:59:06;9.00;99.90
42019;DHT22;27703;51.980;5.848;2024-02-14T03:01:35;9.00;99.90
42019;DHT22;27703;51.980;5.848;2024-02-14T03:04:01;9.10;99.90
42019;DHT22;27703;51.980;5.848;2024-02-14T03:06:27;9.00;99.90
42019;DHT22;27703;51.980;5.848;2024-02-14T03:08:53;9.10;99.90
42019;DHT22;27703;51.980;5.848;2024-02-14T03:11:21;9.10;99.90
42019;DHT22;27703;51.980;5.848;2024-02-14T03:13:47;9.00;99.90
42019;DHT22;27703;51.980;5.848;2024-02-14T03:16:14;9.10;99.90
42019;DHT22;27703;51.980;5.848;2024-02-14T03:18:40;9.00;99.90
42019;DHT22;27703;51.980;5.848;2024-02-14T03:21:06;9.10;99.90
42019;DHT22;27703;51.980;5.848;2024-02-14T03:23:32;9.00;99.90
42019;DHT22;27703;51.980;5.848;2024-02-14T03:25:57;9.10;99.90
42019;DHT22;27703;51.980;5.848;2024-02-14T03:28:23;9.10;99.90
42019;DHT22;27703;51.980;5.848;2024-02-14T03:30:49;9.10;99.90
42019;DHT22;27703;51.980;5.848;2024-02-14T03:33:14;9.10;99.90
42019;DHT22;27703;51.980;5.848;2024-02-14T03:35:40;9.10;99.90
42019;DHT22;27703;51.980;5.848;2024-02-14T03:38:06;9.10;99.90
42019;DHT22;27703;51.980;5.848;2024-02-14T03:40:34;9.10;99.90
42019;DHT22;27703;51.980;5.848;2024-02-14T03:43:01;9.10;99.90
42019;DHT22;27703;51.980;5.848;2024-02-14T03:45:27;9.10;99.90
42019;DHT22;27703;51.980;5.848;2024-02-14T03:47:55;9.10;99.90
42019;DHT22;27703;51.980;5.848;2024-02-14T03:50:22;9.20;99.90
42019;DHT22;27703;51.980;5.848;2024-02-14T03:52:47;9.20;99.90
42019;DHT22;27703;51.980;5.848;2024-02-14T03:55:14;9.20;99.90
42019;DHT22;27703;51.980;5.848;2024-02-14T03:57:42;9.30;99.90
42019;DHT22;27703;51.980;5.848;2024-02-14T04:00:11;9.30;99.90
42019;DHT22;27703;51.980;5.848;2024-02-14T04:02:37;9.30;99.90
42019;DHT22;27703;51.980;5.848;2024-02-14T04:05:03;9.40;99.90
42019;DHT22;27703;51.980;5.848;2024-02-14T04:07:29;9.40;99.90
42019;DHT22;27703;51.980;5.848;2024-02-14T04:09:57;9.40;99.90
42019;DHT22;27703;51.980;5.848;2024-02-14T04:12:23;9.40;99.90
42019;DHT22;27703;51.980;5.848;2024-02-14T04:14:48;9.50;99.90
42019;DHT22;27703;51.980;5.848;2024-02-14T04:17:14;9.50;99.90
42019;DHT22;27703;51.980;5.848;2024-02-14T04:19:40;9.50;99.90
42019;DHT22;27703;51.980;5.848;2024-02-14T04:22:05;9.50;99.90
42019;DHT22;27703;51.980;5.848;2024-02-14T04:24:33;9.50;99.90
42019;DHT22;27703;51.980;5.848;2024-02-14T04:26:59;9.50;99.90
42019;DHT22;27703;51.980;5.848;2024-02-14T04:29:28;9.50;99.90
42019;DHT22;27703;51.980;5.848;2024-02-14T04:31:55;9.50;99.90
42019;DHT22;27703;51.980;5.848;2024-02-14T04:34:21;9.60;99.90
42019;DHT22;27703;51.980;5.848;2024-02-14T04:36:47;9.60;99.90
42019;DHT22;27703;51.980;5.848;2024-02-14T04:39:12;9.60;99.90
42019;DHT22;27703;51.980;5.848;2024-02-14T04:41:38;9.60;99.90
42019;DHT22;27703;51.980;5.848;2024-02-14T04:44:07;9.60;99.90
42019;DHT22;27703;51.980;5.848;2024-02-14T04:46:33;9.70;99.90
42019;DHT22;27703;51.980;5.848;2024-02-14T04:49:00;9.70;99.90
42019;DHT22;27703;51.980;5.848;2024-02-14T04:51:31;9.70;99.90
42019;DHT22;27703;51.980;5.848;2024-02-14T04:53:57;9.70;99.90
42019;DHT22;27703;51.980;5.848;2024-02-14T04:56:28;9.60;99.90
42019;DHT22;27703;51.980;5.848;2024-02-14T04:58:54;9.70;99.90
42019;DHT22;27703;51.980;5.848;2024-02-14T05:01:22;9.60;99.90
42019;DHT22;27703;51.980;5.848;2024-02-14T05:03:48;9.70;99.90
42019;DHT22;27703;51.980;5.848;2024-02-14T05:06:15;9.70;99.90
42019;DHT22;27703;51.980;5.848;2024-02-14T05:08:40;9.70;99.90
42019;DHT22;27703;51.980;5.848;2024-02-14T05:11:06;9.70;99.90
42019;DHT22;27703;51.980;5.848;2024-02-14T05:13:32;9.70;99.90
42019;DHT22;27703;51.980;5.848;2024-02-14T05:15:57;9.70;99.90
42019;DHT22;27703;51.980;5.848;2024-02-14T05:18:23;9.70;99.90
42019;DHT22;27703;51.980;5.848;2024-02-14T05:20:48;9.70;99.90
42019;DHT22;27703;51.980;5.848;2024-02-14T05:23:16;9.70;99.90
42019;DHT22;27703;51.980;5.848;2024-02-14T05:25:43;9.70;99.90
42019;DHT22;27703;51.980;5.848;2024-02-14T05:28:09;9.80;99.90
42019;DHT22;27703;51.980;5.848;2024-02-14T05:30:39;9.80;99.90
42019;DHT22;27703;51.980;5.848;2024-02-14T05:33:04;9.80;99.90
42019;DHT22;27703;51.980;5.848;2024-02-14T05:35:30;9.80;99.90
42019;DHT22;27703;51.980;5.848;2024-02-14T05:37:55;9.80;99.90
42019;DHT22;27703;51.980;5.848;2024-02-14T05:40:21;9.70;99.90
42019;DHT22;27703;51.980;5.848;2024-02-14T05:42:47;9.80;99.90
42019;DHT22;27703;51.980;5.848;2024-02-14T05:45:12;9.80;99.90
42019;DHT22;27703;51.980;5.848;2024-02-14T05:47:38;9.80;99.90
42019;DHT22;27703;51.980;5.848;2024-02-14T05:50:05;9.80;99.90
42019;DHT22;27703;51.980;5.848;2024-02-14T05:52:30;9.80;99.90
42019;DHT22;27703;51.980;5.848;2024-02-14T05:54:56;9.80;99.90
42019;DHT22;27703;51.980;5.848;2024-02-14T05:57:22;9.80;99.90
42019;DHT22;27703;51.980;5.848;2024-02-14T05:59:48;9.80;99.90
42019;DHT22;27703;51.980;5.848;2024-02-14T06:02:13;9.80;99.90
42019;DHT22;27703;51.980;5.848;2024-02-14T06:04:39;9.80;99.90
42019;DHT22;27703;51.980;5.848;2024-02-14T06:07:04;9.80;99.90
42019;DHT22;27703;51.980;5.848;2024-02-14T06:09:32;9.80;99.90
42019;DHT22;27703;51.980;5.848;2024-02-14T06:11:57;9.80;99.90
42019;DHT22;27703;51.980;5.848;2024-02-14T06:14:23;9.80;99.90
42019;DHT22;27703;51.980;5.848;2024-02-14T06:16:49;9.80;99.90
42019;DHT22;27703;51.980;5.848;2024-02-14T06:19:14;9.80;99.90
42019;DHT22;27703;51.980;5.848;2024-02-14T06:21:40;9.80;99.90
42019;DHT22;27703;51.980;5.848;2024-02-14T06:24:05;9.80;99.90
42019;DHT22;27703;51.980;5.848;2024-02-14T06:26:31;9.80;99.90
42019;DHT22;27703;51.980;5.848;2024-02-14T06:28:58;9.80;99.90
42019;DHT22;27703;51.980;5.848;2024-02-14T06:31:24;9.80;99.90
42019;DHT22;27703;51.980;5.848;2024-02-14T06:33:49;9.80;99.90
42019;DHT22;27703;51.980;5.848;2024-02-14T06:36:15;9.80;99.90
42019;DHT22;27703;51.980;5.848;2024-02-14T06:38:40;9.80;99.90
42019;DHT22;27703;51.980;5.848;2024-02-14T06:41:06;9.80;99.90
42019;DHT22;27703;51.980;5.848;2024-02-14T06:43:32;9.80;99.90
42019;DHT22;27703;51.980;5.848;2024-02-14T06:45:57;9.80;99.90
42019;DHT22;27703;51.980;5.848;2024-02-14T06:48:23;9.80;99.90
42019;DHT22;27703;51.980;5.848;2024-02-14T06:50:53;9.80;99.90
42019;DHT22;27703;51.980;5.848;2024-02-14T06:53:18;9.80;99.90
42019;DHT22;27703;51.980;5.848;2024-02-14T06:55:44;9.80;99.90
42019;DHT22;27703;51.980;5.848;2024-02-14T06:58:09;9.80;99.90
42019;DHT22;27703;51.980;5.848;2024-02-14T07:00:35;9.80;99.90
42019;DHT22;27703;51.980;5.848;2024-02-14T07:03:01;9.80;99.90
42019;DHT22;27703;51.980;5.848;2024-02-14T07:05:27;9.90;99.90
42019;DHT22;27703;51.980;5.848;2024-02-14T07:07:54;9.90;99.90
42019;DHT22;27703;51.980;5.848;2024-02-14T07:10:20;9.90;99.90
42019;DHT22;27703;51.980;5.848;2024-02-14T07:12:46;9.90;99.90
42019;DHT22;27703;51.980;5.848;2024-02-14T07:15:11;9.90;99.90
42019;DHT22;27703;51.980;5.848;2024-02-14T07:17:37;9.90;99.90
42019;DHT22;27703;51.980;5.848;2024-02-14T07:20:04;9.90;99.90
42019;DHT22;27703;51.980;5.848;2024-02-14T07:22:30;9.90;99.90
42019;DHT22;27703;51.980;5.848;2024-02-14T07:24:56;9.90;99.90
42019;DHT22;27703;51.980;5.848;2024-02-14T07:27:21;9.90;99.90
42019;DHT22;27703;51.980;5.848;2024-02-14T07:29:49;9.90;99.90
42019;DHT22;27703;51.980;5.848;2024-02-14T07:32:15;9.90;99.90
42019;DHT22;27703;51.980;5.848;2024-02-14T07:34:42;9.90;99.90
42019;DHT22;27703;51.980;5.848;2024-02-14T07:37:07;10.00;99.90
42019;DHT22;27703;51.980;5.848;2024-02-14T07:39:33;10.00;99.90
42019;DHT22;27703;51.980;5.848;2024-02-14T07:42:01;10.00;99.90
42019;DHT22;27703;51.980;5.848;2024-02-14T07:44:27;10.00;99.90
42019;DHT22;27703;51.980;5.848;2024-02-14T07:46:53;10.00;99.90
42019;DHT22;27703;51.980;5.848;2024-02-14T07:49:19;10.00;99.90
42019;DHT22;27703;51.980;5.848;2024-02-14T07:51:45;10.00;99.90
42019;DHT22;27703;51.980;5.848;2024-02-14T07:54:11;10.00;99.90
42019;DHT22;27703;51.980;5.848;2024-02-14T07:56:36;10.10;99.90
42019;DHT22;27703;51.980;5.848;2024-02-14T07:59:02;10.10;99.90
42019;DHT22;27703;51.980;5.848;2024-02-14T08:01:29;10.10;99.90
42019;DHT22;27703;51.980;5.848;2024-02-14T08:03:55;10.10;99.90
42019;DHT22;27703;51.980;5.848;2024-02-14T08:06:20;10.10;99.90
42019;DHT22;27703;51.980;5.848;2024-02-14T08:08:46;10.20;99.90
42019;DHT22;27703;51.980;5.848;2024-02-14T08:11:11;10.20;99.90
42019;DHT22;27703;51.980;5.848;2024-02-14T08:13:37;10.20;99.90
42019;DHT22;27703;51.980;5.848;2024-02-14T08:16:05;10.20;99.90
42019;DHT22;27703;51.980;5.848;2024-02-14T08:18:32;10.20;99.90
42019;DHT22;27703;51.980;5.848;2024-02-14T08:20:58;10.20;99.90
42019;DHT22;27703;51.980;5.848;2024-02-14T08:23:23;10.20;99.90
42019;DHT22;27703;51.980;5.848;2024-02-14T08:25:49;10.20;99.90
42019;DHT22;27703;51.980;5.848;2024-02-14T08:28:15;10.30;99.90
42019;DHT22;27703;51.980;5.848;2024-02-14T08:30:40;10.20;99.90
42019;DHT22;27703;51.980;5.848;2024-02-14T08:33:06;10.20;99.90
42019;DHT22;27703;51.980;5.848;2024-02-14T08:35:32;10.20;99.90
42019;DHT22;27703;51.980;5.848;2024-02-14T08:37:59;10.30;99.90
42019;DHT22;27703;51.980;5.848;2024-02-14T08:40:24;10.30;99.90
42019;DHT22;27703;51.980;5.848;2024-02-14T08:42:50;10.30;99.90
42019;DHT22;27703;51.980;5.848;2024-02-14T08:45:16;10.30;99.90
42019;DHT22;27703;51.980;5.848;2024-02-14T08:47:43;10.30;99.90
42019;DHT22;27703;51.980;5.848;2024-02-14T08:50:09;10.30;99.90
42019;DHT22;27703;51.980;5.848;2024-02-14T08:52:35;10.30;99.90
42019;DHT22;27703;51.980;5.848;2024-02-14T08:55:03;10.30;99.90
42019;DHT22;27703;51.980;5.848;2024-02-14T08:57:29;10.30;99.90
42019;DHT22;27703;51.980;5.848;2024-02-14T08:59:56;10.30;99.90
42019;DHT22;27703;51.980;5.848;2024-02-14T09:02:22;10.30;99.90
42019;DHT22;27703;51.980;5.848;2024-02-14T09:04:48;10.30;99.90
42019;DHT22;27703;51.980;5.848;2024-02-14T09:07:14;10.30;99.90
42019;DHT22;27703;51.980;5.848;2024-02-14T09:09:39;10.40;99.90
42019;DHT22;27703;51.980;5.848;2024-02-14T09:12:05;10.40;99.90
42019;DHT22;27703;51.980;5.848;2024-02-14T09:14:31;10.40;99.90
42019;DHT22;27703;51.980;5.848;2024-02-14T09:16:57;10.40;99.90
42019;DHT22;27703;51.980;5.848;2024-02-14T09:19:23;10.40;99.90
42019;DHT22;27703;51.980;5.848;2024-02-14T09:21:49;10.40;99.90
42019;DHT22;27703;51.980;5.848;2024-02-14T09:24:14;10.40;99.90
42019;DHT22;27703;51.980;5.848;2024-02-14T09:26:40;10.40;99.90
42019;DHT22;27703;51.980;5.848;2024-02-14T09:29:06;10.50;99.90
42019;DHT22;27703;51.980;5.848;2024-02-14T09:31:31;10.50;99.90
42019;DHT22;27703;51.980;5.848;2024-02-14T09:33:57;10.50;99.90
42019;DHT22;27703;51.980;5.848;2024-02-14T09:36:26;10.50;99.90
42019;DHT22;27703;51.980;5.848;2024-02-14T09:38:52;10.50;99.90
42019;DHT22;27703;51.980;5.848;2024-02-14T09:43:50;10.50;99.90
42019;DHT22;27703;51.980;5.848;2024-02-14T09:46:16;10.50;99.90
42019;DHT22;27703;51.980;5.848;2024-02-14T09:48:45;10.50;99.90
42019;DHT22;27703;51.980;5.848;2024-02-14T09:51:12;10.50;99.90
42019;DHT22;27703;51.980;5.848;2024-02-14T09:53:39;10.50;99.90
42019;DHT22;27703;51.980;5.848;2024-02-14T09:56:05;10.50;99.90
42019;DHT22;27703;51.980;5.848;2024-02-14T09:58:32;10.60;99.90
42019;DHT22;27703;51.980;5.848;2024-02-14T10:00:59;10.60;99.90
42019;DHT22;27703;51.980;5.848;2024-02-14T10:03:25;10.60;99.90
42019;DHT22;27703;51.980;5.848;2024-02-14T10:05:51;10.60;99.90
42019;DHT22;27703;51.980;5.848;2024-02-14T10:08:18;10.60;99.90
42019;DHT22;27703;51.980;5.848;2024-02-14T10:10:46;10.60;99.90
42019;DHT22;27703;51.980;5.848;2024-02-14T10:13:12;10.70;99.90
42019;DHT22;27703;51.980;5.848;2024-02-14T10:15:37;10.70;99.90
42019;DHT22;27703;51.980;5.848;2024-02-14T10:18:03;10.70;99.90
42019;DHT22;27703;51.980;5.848;2024-02-14T10:20:29;10.70;99.90
42019;DHT22;27703;51.980;5.848;2024-02-14T10:23:03;10.70;99.90
42019;DHT22;27703;51.980;5.848;2024-02-14T10:25:29;10.80;99.90
42019;DHT22;27703;51.980;5.848;2024-02-14T10:27:56;10.80;99.90
42019;DHT22;27703;51.980;5.848;2024-02-14T10:30:22;10.80;99.90
42019;DHT22;27703;51.980;5.848;2024-02-14T10:32:48;10.80;99.90
42019;DHT22;27703;51.980;5.848;2024-02-14T10:35:16;10.80;99.90
42019;DHT22;27703;51.980;5.848;2024-02-14T10:37:44;10.90;99.90
42019;DHT22;27703;51.980;5.848;2024-02-14T10:40:12;10.90;99.90
42019;DHT22;27703;51.980;5.848;2024-02-14T10:42:38;10.90;99.90
42019;DHT22;27703;51.980;5.848;2024-02-14T10:45:04;10.80;99.90
42019;DHT22;27703;51.980;5.848;2024-02-14T10:47:34;10.90;99.90
42019;DHT22;27703;51.980;5.848;2024-02-14T10:50:05;10.90;99.90
42019;DHT22;27703;51.980;5.848;2024-02-14T10:52:32;11.00;99.90
42019;DHT22;27703;51.980;5.848;2024-02-14T10:55:05;11.00;99.90
42019;DHT22;27703;51.980;5.848;2024-02-14T10:57:34;11.00;99.90
42019;DHT22;27703;51.980;5.848;2024-02-14T11:00:04;11.00;99.90
42019;DHT22;27703;51.980;5.848;2024-02-14T11:02:32;11.10;99.90
42019;DHT22;27703;51.980;5.848;2024-02-14T11:04:58;11.10;99.90
42019;DHT22;27703;51.980;5.848;2024-02-14T11:07:27;11.10;99.90
42019;DHT22;27703;51.980;5.848;2024-02-14T11:10:07;11.10;99.90
42019;DHT22;27703;51.980;5.848;2024-02-14T11:12:34;11.20;99.90
42019;DHT22;27703;51.980;5.848;2024-02-14T11:15:02;11.20;99.90
42019;DHT22;27703;51.980;5.848;2024-02-14T11:17:34;11.20;99.90
42019;DHT22;27703;51.980;5.848;2024-02-14T11:19:59;11.20;99.90
42019;DHT22;27703;51.980;5.848;2024-02-14T11:22:25;11.30;99.90
42019;DHT22;27703;51.980;5.848;2024-02-14T11:24:51;11.30;99.90
42019;DHT22;27703;51.980;5.848;2024-02-14T11:27:18;11.30;99.90
42019;DHT22;27703;51.980;5.848;2024-02-14T11:29:53;11.30;99.90
42019;DHT22;27703;51.980;5.848;2024-02-14T11:32:19;11.30;99.90
42019;DHT22;27703;51.980;5.848;2024-02-14T11:34:54;11.30;99.90
42019;DHT22;27703;51.980;5.848;2024-02-14T11:37:30;11.30;99.90
42019;DHT22;27703;51.980;5.848;2024-02-14T11:39:57;11.30;99.90
42019;DHT22;27703;51.980;5.848;2024-02-14T11:42:23;11.30;99.90
42019;DHT22;27703;51.980;5.848;2024-02-14T11:44:49;11.30;99.90
42019;DHT22;27703;51.980;5.848;2024-02-14T11:47:14;11.30;99.90
42019;DHT22;27703;51.980;5.848;2024-02-14T11:49:40;11.30;99.90
42019;DHT22;27703;51.980;5.848;2024-02-14T11:52:10;11.40;99.90
42019;DHT22;27703;51.980;5.848;2024-02-14T11:54:36;11.40;99.90
42019;DHT22;27703;51.980;5.848;2024-02-14T11:57:03;11.40;99.90
42019;DHT22;27703;51.980;5.848;2024-02-14T11:59:29;11.40;99.90
42019;DHT22;27703;51.980;5.848;2024-02-14T12:01:54;11.40;99.90
42019;DHT22;27703;51.980;5.848;2024-02-14T12:04:23;11.40;99.90
42019;DHT22;27703;51.980;5.848;2024-02-14T12:06:49;11.40;99.90
42019;DHT22;27703;51.980;5.848;2024-02-14T12:09:15;11.40;99.90
42019;DHT22;27703;51.980;5.848;2024-02-14T12:11:41;11.40;99.90
42019;DHT22;27703;51.980;5.848;2024-02-14T12:14:09;11.40;99.90
42019;DHT22;27703;51.980;5.848;2024-02-14T12:16:36;11.50;99.90
42019;DHT22;27703;51.980;5.848;2024-02-14T12:21:38;11.50;99.90
42019;DHT22;27703;51.980;5.848;2024-02-14T12:24:08;11.50;99.90
42019;DHT22;27703;51.980;5.848;2024-02-14T12:26:38;11.50;99.90
42019;DHT22;27703;51.980;5.848;2024-02-14T12:29:04;11.50;99.90
42019;DHT22;27703;51.980;5.848;2024-02-14T12:31:30;11.50;99.90
42019;DHT22;27703;51.980;5.848;2024-02-14T12:33:57;11.50;99.90
42019;DHT22;27703;51.980;5.848;2024-02-14T12:36:26;11.50;99.90
42019;DHT22;27703;51.980;5.848;2024-02-14T12:38:52;11.50;99.90
42019;DHT22;27703;51.980;5.848;2024-02-14T12:41:18;11.50;99.90
42019;DHT22;27703;51.980;5.848;2024-02-14T12:43:44;11.50;99.90
42019;DHT22;27703;51.980;5.848;2024-02-14T12:46:10;11.50;99.90
42019;DHT22;27703;51.980;5.848;2024-02-14T12:48:35;11.50;99.90
42019;DHT22;27703;51.980;5.848;2024-02-14T12:51:01;11.50;99.90
42019;DHT22;27703;51.980;5.848;2024-02-14T12:53:27;11.50;99.90
42019;DHT22;27703;51.980;5.848;2024-02-14T12:55:52;11.50;99.90
42019;DHT22;27703;51.980;5.848;2024-02-14T12:58:18;11.50;99.90
42019;DHT22;27703;51.980;5.848;2024-02-14T13:00:44;11.50;99.90
42019;DHT22;27703;51.980;5.848;2024-02-14T13:03:11;11.50;99.90
42019;DHT22;27703;51.980;5.848;2024-02-14T13:05:37;11.40;99.90
42019;DHT22;27703;51.980;5.848;2024-02-14T13:08:03;11.50;99.90
42019;DHT22;27703;51.980;5.848;2024-02-14T13:10:29;11.50;99.90
42019;DHT22;27703;51.980;5.848;2024-02-14T13:12:56;11.50;99.90
42019;DHT22;27703;51.980;5.848;2024-02-14T13:15:22;11.50;99.90
42019;DHT22;27703;51.980;5.848;2024-02-14T13:17:48;11.50;99.90
42019;DHT22;27703;51.980;5.848;2024-02-14T13:20:14;11.50;99.90
42019;DHT22;27703;51.980;5.848;2024-02-14T13:22:41;11.50;99.90
42019;DHT22;27703;51.980;5.848;2024-02-14T13:25:08;11.50;99.90
42019;DHT22;27703;51.980;5.848;2024-02-14T13:27:34;11.50;99.90
42019;DHT22;27703;51.980;5.848;2024-02-14T13:30:01;11.50;99.90
42019;DHT22;27703;51.980;5.848;2024-02-14T13:32:27;11.50;99.90
42019;DHT22;27703;51.980;5.848;2024-02-14T13:34:52;11.50;99.90
42019;DHT22;27703;51.980;5.848;2024-02-14T13:37:18;11.50;99.90
42019;DHT22;27703;51.980;5.848;2024-02-14T13:39:44;11.50;99.90
42019;DHT22;27703;51.980;5.848;2024-02-14T13:42:10;11.50;99.90
42019;DHT22;27703;51.980;5.848;2024-02-14T13:44:36;11.60;99.90
42019;DHT22;27703;51.980;5.848;2024-02-14T13:47:02;11.50;99.90
42019;DHT22;27703;51.980;5.848;2024-02-14T13:49:28;11.60;99.90
42019;DHT22;27703;51.980;5.848;2024-02-14T13:51:53;11.60;99.90
42019;DHT22;27703;51.980;5.848;2024-02-14T13:54:20;11.60;99.90
42019;DHT22;27703;51.980;5.848;2024-02-14T13:56:46;11.60;99.90
42019;DHT22;27703;51.980;5.848;2024-02-14T13:59:14;11.60;99.90
42019;DHT22;27703;51.980;5.848;2024-02-14T14:01:40;11.60;99.90
42019;DHT22;27703;51.980;5.848;2024-02-14T14:04:05;11.60;99.90
42019;DHT22;27703;51.980;5.848;2024-02-14T14:06:31;11.60;99.90
42019;DHT22;27703;51.980;5.848;2024-02-14T14:08:57;11.60;99.90
42019;DHT22;27703;51.980;5.848;2024-02-14T14:11:22;11.60;99.90
42019;DHT22;27703;51.980;5.848;2024-02-14T14:13:48;11.60;99.90
42019;DHT22;27703;51.980;5.848;2024-02-14T14:16:14;11.60;99.90
42019;DHT22;27703;51.980;5.848;2024-02-14T14:18:40;11.60;99.90
42019;DHT22;27703;51.980;5.848;2024-02-14T14:21:06;11.60;99.90
42019;DHT22;27703;51.980;5.848;2024-02-14T14:23:32;11.70;99.90
42019;DHT22;27703;51.980;5.848;2024-02-14T14:25:58;11.60;99.90
42019;DHT22;27703;51.980;5.848;2024-02-14T14:28:24;11.70;99.90
42019;DHT22;27703;51.980;5.848;2024-02-14T14:30:53;11.60;99.90
42019;DHT22;27703;51.980;5.848;2024-02-14T14:33:22;11.70;99.90
42019;DHT22;27703;51.980;5.848;2024-02-14T14:35:48;11.70;99.90
42019;DHT22;27703;51.980;5.848;2024-02-14T14:38:18;11.60;99.90
42019;DHT22;27703;51.980;5.848;2024-02-14T14:40:44;11.70;99.90
42019;DHT22;27703;51.980;5.848;2024-02-14T14:43:11;11.70;99.90
42019;DHT22;27703;51.980;5.848;2024-02-14T14:45:36;11.70;99.90
42019;DHT22;27703;51.980;5.848;2024-02-14T14:48:04;11.70;99.90
42019;DHT22;27703;51.980;5.848;2024-02-14T14:50:30;11.70;99.90
42019;DHT22;27703;51.980;5.848;2024-02-14T14:52:57;11.70;99.90
42019;DHT22;27703;51.980;5.848;2024-02-14T14:55:24;11.70;99.90
42019;DHT22;27703;51.980;5.848;2024-02-14T14:57:49;11.70;99.90
42019;DHT22;27703;51.980;5.848;2024-02-14T15:00:16;11.80;99.90
42019;DHT22;27703;51.980;5.848;2024-02-14T15:02:42;11.80;99.90
42019;DHT22;27703;51.980;5.848;2024-02-14T15:05:12;11.70;99.90
42019;DHT22;27703;51.980;5.848;2024-02-14T15:07:40;11.80;99.90
42019;DHT22;27703;51.980;5.848;2024-02-14T15:10:07;11.80;99.90
42019;DHT22;27703;51.980;5.848;2024-02-14T15:12:36;11.80;99.90
42019;DHT22;27703;51.980;5.848;2024-02-14T15:15:05;11.90;99.90
42019;DHT22;27703;51.980;5.848;2024-02-14T15:17:31;11.90;99.90
42019;DHT22;27703;51.980;5.848;2024-02-14T15:19:57;11.90;99.90
42019;DHT22;27703;51.980;5.848;2024-02-14T15:22:23;11.90;99.90
42019;DHT22;27703;51.980;5.848;2024-02-14T15:24:50;11.90;99.90
42019;DHT22;27703;51.980;5.848;2024-02-14T15:27:17;12.00;99.90
42019;DHT22;27703;51.980;5.848;2024-02-14T15:29:47;12.00;99.90
42019;DHT22;27703;51.980;5.848;2024-02-14T15:32:32;12.00;99.90
42019;DHT22;27703;51.980;5.848;2024-02-14T15:35:16;12.00;99.90
42019;DHT22;27703;51.980;5.848;2024-02-14T15:37:42;12.00;99.90
42019;DHT22;27703;51.980;5.848;2024-02-14T15:40:08;12.00;99.90